Pine, New Mexico
Current Conditions -  °F | °C
As of 8:53 PM on Friday 24 Oct 2014 (Local Time) from KLVS Reporting Station
Clear Clear  
Wind Chill: 54°   Ceiling: Unl
Heat Index: 54°   Visibility: 10mi
Dew Point: 26°   Wind: 8mph
Humidity: 34%   Direction: 20°NNE
Pressure: 30.32"   Gusts: NA
Location:  35.582°N, 105.558°W
Report Text: KLVS 250253Z AUTO 02007KT 10SM CLR 12/M03 A3032 RMK AO2 SLP188 T01221033 52015
Loading
Personal Weather Stations






























Interactive Weather Map
Tropical Storm Tracking
New forecast layout! Learn more

10-Day Weather Forecast

Advertisements
Track Severe Weather on mobile